Time;durP1;ratioP1;P1;durP2;ratioP2;P2;SDS_P1;SDS_P2;PMS_P1;PMS_P2;Temp;Humidity;BMP_temperature;BMP_pressure;BME280_temperature;BME280_humidity;BME280_pressure;Samples;Min_cycle;Max_cycle;Signal;HPM_P1;HPM_P2
2022/01/04 00:00:11;;;;;;;10.63;5.37;;;;;;;6.15;87.55;99371.58;3537727;78;21571;-74
2022/01/04 00:05:07;;;;;;;12.75;6.15;;;;;;;6.10;87.46;99380.14;3515015;79;20974;-74
2022/01/04 00:10:00;;;;;;;11.75;5.97;;;;;;;6.07;87.57;99372.34;3515555;78;21411;-74
2022/01/04 00:14:52;;;;;;;10.58;6.15;;;;;;;6.06;87.62;99379.66;3506211;80;21458;-74
2022/01/04 00:19:44;;;;;;;10.23;5.87;;;;;;;6.03;87.60;99376.17;3527143;79;20950;-74
2022/01/04 00:24:37;;;;;;;14.03;5.75;;;;;;;5.98;87.69;99377.38;3552991;78;20919;-75
2022/01/04 00:29:29;;;;;;;8.75;5.85;;;;;;;5.96;87.71;99371.77;3495029;79;20923;-75
2022/01/04 00:34:21;;;;;;;14.80;7.42;;;;;;;5.96;87.78;99371.34;3557194;78;21446;-74
2022/01/04 00:39:13;;;;;;;10.82;6.28;;;;;;;5.98;87.78;99360.61;3554698;78;21021;-74
2022/01/04 00:44:06;;;;;;;10.98;6.53;;;;;;;5.97;87.79;99367.04;3538396;78;20945;-75
2022/01/04 00:49:10;;;;;;;12.65;6.50;;;;;;;5.96;87.80;99365.32;3518439;80;21511;-75
2022/01/04 00:54:03;;;;;;;14.18;6.95;;;;;;;5.94;87.81;99365.27;3513632;79;20970;-73
2022/01/04 00:58:55;;;;;;;15.68;7.00;;;;;;;5.93;87.74;99360.94;3509597;80;20951;-74
2022/01/04 01:03:48;;;;;;;17.98;7.58;;;;;;;5.93;87.86;99357.06;3465526;79;21277;-74
2022/01/04 01:08:40;;;;;;;7.78;6.47;;;;;;;5.92;87.91;99347.18;3477750;79;20950;-74
2022/01/04 01:13:32;;;;;;;12.10;6.45;;;;;;;5.87;87.88;99337.65;3538273;78;20958;-75
2022/01/04 01:18:24;;;;;;;14.80;6.45;;;;;;;5.81;87.97;99331.98;3572059;78;21009;-74
2022/01/04 01:23:19;;;;;;;11.50;6.47;;;;;;;5.76;87.91;99323.71;3571861;78;21421;-74
2022/01/04 01:28:11;;;;;;;11.75;7.42;;;;;;;5.67;87.95;99326.62;3510784;78;21284;-74
2022/01/04 01:33:03;;;;;;;15.15;6.87;;;;;;;5.61;88.01;99315.34;3552525;78;21011;-74
2022/01/04 01:37:55;;;;;;;11.73;6.47;;;;;;;5.53;88.07;99314.81;3556537;78;21005;-74
2022/01/04 01:42:47;;;;;;;8.63;5.45;;;;;;;5.48;87.93;99310.44;3486065;79;21045;-74
2022/01/04 01:47:41;;;;;;;13.58;6.25;;;;;;;5.38;88.01;99309.41;3522488;78;20950;-74
2022/01/04 01:52:33;;;;;;;13.78;6.15;;;;;;;5.24;87.94;99305.36;3497894;78;20946;-74
2022/01/04 01:57:25;;;;;;;10.70;5.97;;;;;;;5.12;87.69;99296.14;3548703;79;20923;-74
2022/01/04 02:02:17;;;;;;;10.53;6.15;;;;;;;4.95;87.84;99291.58;3525235;79;20950;-73
2022/01/04 02:07:12;;;;;;;9.00;5.20;;;;;;;4.82;87.52;99290.91;3484045;80;20956;-74
2022/01/04 02:12:06;;;;;;;11.12;5.10;;;;;;;4.63;87.48;99290.99;3471782;78;20982;-74
2022/01/04 02:16:59;;;;;;;8.78;5.55;;;;;;;4.53;87.66;99300.70;3514686;79;21848;-74
2022/01/04 02:21:51;;;;;;;11.08;5.40;;;;;;;4.45;87.80;99290.66;3459355;78;21064;-73
2022/01/04 02:26:43;;;;;;;7.37;4.85;;;;;;;4.33;87.91;99289.61;3486035;79;21031;-73
2022/01/04 02:31:38;;;;;;;11.15;5.37;;;;;;;4.26;87.80;99288.18;3515618;78;20963;-74
2022/01/04 02:36:30;;;;;;;9.93;5.58;;;;;;;4.23;88.25;99285.54;3477317;78;20947;-74
2022/01/04 02:41:22;;;;;;;11.63;5.53;;;;;;;4.27;88.33;99288.19;3469734;79;20895;-74
2022/01/04 02:46:14;;;;;;;8.25;5.03;;;;;;;4.27;88.19;99277.03;3545760;79;20970;-75
2022/01/04 02:51:06;;;;;;;11.50;5.12;;;;;;;4.26;88.02;99267.17;3553113;78;21006;-73
2022/01/04 02:55:58;;;;;;;10.25;5.33;;;;;;;4.26;88.06;99266.31;3499210;78;20954;-73
2022/01/04 03:00:50;;;;;;;11.38;6.25;;;;;;;4.22;88.16;99262.81;3498791;78;21049;-74
2022/01/04 03:05:42;;;;;;;12.98;5.65;;;;;;;4.20;88.20;99259.31;3520435;80;21734;-74
2022/01/04 03:10:35;;;;;;;8.25;4.92;;;;;;;4.16;88.34;99244.23;3524380;78;21016;-74
2022/01/04 03:15:27;;;;;;;9.55;4.40;;;;;;;4.18;88.53;99248.98;3451449;81;21480;-74
2022/01/04 03:20:19;;;;;;;7.50;4.85;;;;;;;4.17;88.29;99251.56;3551612;79;21534;-74
2022/01/04 03:25:11;;;;;;;12.95;5.78;;;;;;;4.18;88.49;99239.13;3537817;78;20954;-75
2022/01/04 03:30:05;;;;;;;10.40;5.15;;;;;;;4.25;88.87;99224.25;3507367;78;21034;-74
2022/01/04 03:34:57;;;;;;;8.63;4.85;;;;;;;4.30;88.71;99223.92;3508974;79;21013;-74
2022/01/04 03:39:49;;;;;;;11.68;4.95;;;;;;;4.33;88.80;99221.41;3532071;79;20962;-74
2022/01/04 03:44:41;;;;;;;10.53;5.62;;;;;;;4.34;88.94;99219.70;3486418;78;20939;-74
2022/01/04 03:49:33;;;;;;;11.30;5.28;;;;;;;4.40;89.05;99219.83;3499022;79;20907;-74
2022/01/04 03:54:26;;;;;;;7.10;5.12;;;;;;;4.47;89.08;99216.91;3458447;80;21533;-73
2022/01/04 03:59:18;;;;;;;11.93;4.90;;;;;;;4.54;89.05;99215.78;3539628;78;20974;-73
2022/01/04 04:04:11;;;;;;;11.73;5.20;;;;;;;4.58;88.77;99218.84;3519116;79;20908;-74
2022/01/04 04:09:03;;;;;;;10.32;5.60;;;;;;;4.68;88.95;99215.14;3474967;80;20956;-75
2022/01/04 04:13:55;;;;;;;10.15;4.60;;;;;;;4.75;88.87;99211.39;3423605;80;20925;-74
2022/01/04 04:18:47;;;;;;;9.48;4.50;;;;;;;4.78;88.63;99205.44;3491112;79;20987;-74
2022/01/04 04:23:39;;;;;;;8.90;4.40;;;;;;;4.71;88.55;99198.46;3466627;79;21880;-73
2022/01/04 04:28:31;;;;;;;9.05;4.55;;;;;;;4.66;88.64;99203.52;3483413;80;20971;-74
2022/01/04 04:33:23;;;;;;;10.28;4.47;;;;;;;4.57;88.41;99204.23;3426285;81;20994;-73
2022/01/04 04:38:16;;;;;;;8.45;4.97;;;;;;;4.53;88.55;99203.74;3501783;79;20978;-73
2022/01/04 04:43:07;;;;;;;8.00;5.40;;;;;;;4.55;88.69;99205.92;3478419;79;21562;-74
2022/01/04 04:47:59;;;;;;;9.13;4.35;;;;;;;4.56;88.55;99203.80;3538208;79;20951;-74
2022/01/04 04:52:52;;;;;;;9.53;4.97;;;;;;;4.52;88.51;99187.84;3506594;79;21002;-74
2022/01/04 04:57:44;;;;;;;9.03;4.53;;;;;;;4.45;88.51;99179.56;3501773;79;21394;-73
2022/01/04 05:02:37;;;;;;;12.03;5.08;;;;;;;4.41;88.61;99176.51;3539414;78;21556;-74
2022/01/04 05:07:30;;;;;;;6.83;4.65;;;;;;;4.41;88.80;99171.79;3399489;81;21160;-74
2022/01/04 05:12:22;;;;;;;9.25;4.55;;;;;;;4.43;88.77;99172.25;3447352;81;21039;-74
2022/01/04 05:17:14;;;;;;;11.38;4.42;;;;;;;4.44;88.71;99166.70;3440607;81;20935;-74
2022/01/04 05:22:07;;;;;;;8.25;4.25;;;;;;;4.48;88.71;99174.91;3533700;79;20937;-74
2022/01/04 05:27:00;;;;;;;12.00;6.12;;;;;;;4.49;88.74;99163.75;3534314;79;21016;-74
2022/01/04 05:31:52;;;;;;;9.05;4.97;;;;;;;4.52;88.78;99167.25;3535980;79;21531;-74
2022/01/04 05:36:44;;;;;;;11.75;5.40;;;;;;;4.56;88.80;99174.20;3544790;79;21488;-74
2022/01/04 05:41:37;;;;;;;7.20;5.03;;;;;;;4.56;88.83;99166.88;3499460;79;21436;-74
2022/01/04 05:46:29;;;;;;;9.45;5.05;;;;;;;4.61;88.92;99169.54;3478268;79;21445;-75
2022/01/04 05:51:21;;;;;;;8.23;5.22;;;;;;;4.67;89.07;99163.19;3534184;79;21057;-74
2022/01/04 05:56:13;;;;;;;10.82;5.22;;;;;;;4.76;89.16;99165.94;3489457;79;20974;-74
2022/01/04 06:01:05;;;;;;;7.40;4.75;;;;;;;4.82;89.15;99160.01;3505282;79;21622;-74
2022/01/04 06:05:59;;;;;;;10.23;5.47;;;;;;;4.85;89.08;99154.48;3499807;78;21520;-74
2022/01/04 06:10:54;;;;;;;10.80;5.80;;;;;;;4.88;89.21;99149.78;3449583;79;21311;-74
2022/01/04 06:15:45;;;;;;;9.53;5.95;;;;;;;4.92;89.18;99144.71;3489447;79;20954;-74
2022/01/04 06:20:38;;;;;;;9.78;5.42;;;;;;;4.88;89.25;99142.95;3549810;79;21443;-74
2022/01/04 06:25:30;;;;;;;7.47;5.10;;;;;;;4.83;89.12;99144.58;3518728;79;21548;-74
2022/01/04 06:30:23;;;;;;;6.97;4.22;;;;;;;4.72;89.11;99144.82;3475069;80;21033;-74
2022/01/04 06:35:15;;;;;;;8.58;5.05;;;;;;;4.62;89.01;99146.83;3525305;78;20952;-73
2022/01/04 06:40:10;;;;;;;6.08;4.70;;;;;;;4.46;88.80;99141.42;3558657;78;20998;-74
2022/01/04 06:45:04;;;;;;;7.95;4.33;;;;;;;4.34;88.89;99132.21;3526384;79;21799;-74
2022/01/04 06:49:56;;;;;;;7.33;4.30;;;;;;;4.22;88.67;99135.86;3395473;81;21469;-74
2022/01/04 06:54:49;;;;;;;8.75;5.45;;;;;;;4.06;88.44;99137.30;3528164;79;21570;-74
2022/01/04 06:59:41;;;;;;;10.28;5.40;;;;;;;4.01;88.73;99132.09;3479852;79;21216;-73
2022/01/04 07:04:34;;;;;;;11.68;6.42;;;;;;;3.99;88.79;99137.20;3506541;78;20951;-73
2022/01/04 07:09:26;;;;;;;11.08;5.70;;;;;;;4.00;89.07;99138.05;3499917;79;21062;-74
2022/01/04 07:14:18;;;;;;;10.72;5.95;;;;;;;4.00;88.78;99138.05;3500000;78;20929;-73
2022/01/04 07:19:10;;;;;;;9.25;5.95;;;;;;;3.98;88.90;99129.45;3537359;78;20921;-76
2022/01/04 07:24:04;;;;;;;9.60;6.35;;;;;;;3.99;88.79;99118.34;3492621;79;20915;-73
2022/01/04 07:28:58;;;;;;;14.18;8.20;;;;;;;3.97;88.75;99113.16;3497844;79;20941;-71
2022/01/04 07:33:50;;;;;;;14.30;8.40;;;;;;;4.01;88.94;99107.66;3461936;80;21159;-73
2022/01/04 07:38:43;;;;;;;9.93;8.13;;;;;;;4.06;89.01;99109.89;3495415;79;20986;-72
2022/01/04 07:43:35;;;;;;;11.55;7.47;;;;;;;4.10;88.96;99109.52;3464111;79;21041;-72
2022/01/04 07:48:28;;;;;;;14.13;9.20;;;;;;;4.15;89.11;99109.16;3461778;80;21601;-77
2022/01/04 07:53:20;;;;;;;18.32;10.88;;;;;;;4.25;89.18;99105.05;3421038;79;20950;-74
2022/01/04 07:58:12;;;;;;;12.65;8.55;;;;;;;4.32;89.20;99100.02;3453851;80;20967;-75
2022/01/04 08:03:06;;;;;;;14.55;9.53;;;;;;;4.43;89.19;99096.33;3450361;80;20957;-72
2022/01/04 08:07:58;;;;;;;15.05;9.00;;;;;;;4.52;89.22;99090.03;3433686;81;20958;-76
2022/01/04 08:12:50;;;;;;;12.35;9.20;;;;;;;4.62;89.24;99092.77;3377810;81;21132;-72
2022/01/04 08:17:42;;;;;;;16.17;10.55;;;;;;;4.71;89.26;99074.88;3457811;80;20981;-72
2022/01/04 08:22:35;;;;;;;17.37;10.32;;;;;;;4.77;89.23;99072.38;3362943;82;20966;-73
2022/01/04 08:27:28;;;;;;;17.40;10.18;;;;;;;4.83;89.28;99062.17;3404926;82;20997;-72
2022/01/04 08:32:21;;;;;;;14.70;9.08;;;;;;;4.89;89.32;99051.09;3405601;80;21595;-72
2022/01/04 08:37:13;;;;;;;16.27;10.10;;;;;;;5.00;89.36;99043.50;3436940;81;21496;-72
2022/01/04 08:42:05;;;;;;;15.90;10.13;;;;;;;5.17;89.31;99031.69;3424011;81;20965;-72
2022/01/04 08:46:58;;;;;;;16.65;10.48;;;;;;;5.35;89.18;99031.03;3350260;81;21076;-74
2022/01/04 08:51:49;;;;;;;14.28;8.68;;;;;;;5.48;89.02;99008.83;3398535;81;21520;-74
2022/01/04 08:56:43;;;;;;;14.13;9.50;;;;;;;5.57;88.92;99003.76;3455511;80;22043;-73
2022/01/04 09:01:37;;;;;;;12.00;9.58;;;;;;;5.65;89.03;98996.09;3425875;80;21305;-72
2022/01/04 09:06:29;;;;;;;16.42;10.72;;;;;;;5.77;88.75;98995.34;3485687;80;21033;-72
2022/01/04 09:11:23;;;;;;;13.78;10.08;;;;;;;5.90;88.72;98985.55;3408607;81;21506;-73
2022/01/04 09:21:14;;;;;;;13.13;8.43;;;;;;;6.32;88.34;98964.83;3421069;81;21480;-72
2022/01/04 09:26:07;;;;;;;11.65;8.35;;;;;;;6.52;88.16;98954.60;3429907;80;20991;-71
2022/01/04 09:31:00;;;;;;;13.68;8.20;;;;;;;6.71;87.92;98959.84;3430007;80;20974;-78
2022/01/04 09:35:52;;;;;;;11.38;7.25;;;;;;;6.68;87.63;98964.14;3415930;80;21954;-72
2022/01/04 09:40:46;;;;;;;11.12;7.70;;;;;;;6.71;87.48;98968.48;3383009;81;20967;-71
2022/01/04 09:45:38;;;;;;;9.98;7.40;;;;;;;6.71;87.60;98949.11;3469230;81;21617;-71
2022/01/04 09:50:35;;;;;;;8.95;7.00;;;;;;;6.76;87.62;98944.83;3454720;80;20891;-73
2022/01/04 09:55:27;;;;;;;8.38;6.10;;;;;;;6.81;87.42;98942.25;3464100;80;20923;-73
2022/01/04 10:00:19;;;;;;;11.53;5.97;;;;;;;6.83;87.28;98932.38;3490635;80;21073;-72
2022/01/04 10:05:29;;;;;;;8.90;5.60;;;;;;;6.85;87.27;98921.61;3485911;80;20922;-76
2022/01/04 10:10:21;;;;;;;8.15;5.80;;;;;;;6.90;87.24;98909.13;3455989;81;21610;-76
2022/01/04 10:15:36;;;;;;;7.35;6.12;;;;;;;6.88;87.04;98906.53;3448445;79;21500;-73
2022/01/04 10:20:29;;;;;;;8.05;5.78;;;;;;;6.89;87.12;98914.73;3485873;80;20979;-72
2022/01/04 10:25:21;;;;;;;8.30;6.28;;;;;;;6.92;87.39;98897.06;3440718;81;21823;-73
2022/01/04 10:30:26;;;;;;;13.83;6.47;;;;;;;6.87;87.22;98887.59;3445860;80;20989;-71
2022/01/04 10:35:50;;;;;;;9.55;6.30;;;;;;;6.84;87.40;98871.22;3470018;78;20962;-72
2022/01/04 10:40:57;;;;;;;9.38;6.67;;;;;;;6.83;87.56;98874.25;3508736;79;20920;-72
2022/01/04 10:45:50;;;;;;;9.00;6.00;;;;;;;6.81;87.60;98868.19;3555348;79;21031;-72
2022/01/04 10:50:47;;;;;;;10.40;6.85;;;;;;;6.78;87.68;98869.49;3506421;78;22041;-73
2022/01/04 10:55:39;;;;;;;10.50;5.92;;;;;;;6.81;87.69;98861.73;3477640;78;21013;-72
2022/01/04 11:00:32;;;;;;;8.28;6.37;;;;;;;6.94;87.70;98850.13;3577897;78;20949;-71
2022/01/04 11:05:25;;;;;;;8.30;6.08;;;;;;;6.98;87.43;98846.28;3574004;78;21085;-72
2022/01/04 11:10:18;;;;;;;9.65;6.42;;;;;;;6.99;87.53;98831.62;3487115;79;21464;-75
2022/01/04 11:15:10;;;;;;;12.95;6.70;;;;;;;7.01;87.77;98826.91;3520200;78;21477;-74
2022/01/04 11:20:03;;;;;;;12.45;7.70;;;;;;;6.99;87.63;98813.13;3517289;78;21558;-72
2022/01/04 11:24:55;;;;;;;11.18;7.12;;;;;;;7.01;87.78;98811.81;3535746;78;20991;-71
2022/01/04 11:29:48;;;;;;;15.30;8.28;;;;;;;7.01;87.87;98801.48;3503305;78;21190;-72
2022/01/04 11:35:06;;;;;;;12.45;8.23;;;;;;;6.97;88.03;98798.03;3566151;78;20938;-72
2022/01/04 11:39:58;;;;;;;12.60;8.57;;;;;;;6.93;88.05;98779.96;3477993;78;21081;-73
2022/01/04 11:44:50;;;;;;;14.05;9.53;;;;;;;6.91;88.31;98768.77;3464862;79;20923;-73
2022/01/04 11:50:16;;;;;;;13.65;9.18;;;;;;;6.87;88.37;98758.42;3488187;79;21033;-72
2022/01/04 11:55:29;;;;;;;19.20;14.87;;;;;;;6.86;88.51;98745.06;3474818;79;21017;-78
2022/01/04 12:00:30;;;;;;;15.05;9.78;;;;;;;6.89;88.62;98734.33;3495255;80;21005;-74
2022/01/04 12:05:24;;;;;;;13.75;9.95;;;;;;;6.93;88.55;98712.79;3487573;78;21266;-74
2022/01/04 12:10:25;;;;;;;14.00;9.90;;;;;;;6.94;88.66;98706.33;3462588;78;21029;-72
2022/01/04 12:15:38;;;;;;;12.65;10.03;;;;;;;6.95;88.61;98691.24;3503915;79;21506;-73
2022/01/04 12:20:46;;;;;;;13.70;9.65;;;;;;;6.95;88.56;98678.77;3530246;78;21498;-76
2022/01/04 12:25:38;;;;;;;12.70;9.05;;;;;;;6.93;88.62;98672.30;3498855;78;20970;-73
2022/01/04 12:30:30;;;;;;;13.98;9.88;;;;;;;6.87;88.60;98660.70;3487953;79;21021;-75
2022/01/04 12:35:28;;;;;;;12.37;9.38;;;;;;;6.81;88.75;98648.62;3499524;79;20937;-75
2022/01/04 12:40:20;;;;;;;12.37;9.58;;;;;;;6.76;88.80;98638.75;3526133;79;21634;-71
2022/01/04 12:45:13;;;;;;;13.22;9.50;;;;;;;6.75;89.00;98629.27;3472091;79;20886;-71
2022/01/04 12:50:07;;;;;;;13.48;9.48;;;;;;;6.77;89.11;98604.73;3542278;79;20951;-71
2022/01/04 12:55:01;;;;;;;12.20;9.25;;;;;;;6.74;89.18;98596.55;3472220;79;21538;-70
2022/01/04 12:59:56;;;;;;;11.60;8.98;;;;;;;6.71;89.25;98586.24;3484296;79;20973;-71
2022/01/04 13:04:56;;;;;;;12.05;9.48;;;;;;;6.71;89.29;98581.48;3432253;79;21036;-71
2022/01/04 13:09:56;;;;;;;15.03;9.28;;;;;;;6.68;89.24;98568.16;3454811;79;20988;-70
2022/01/04 13:14:48;;;;;;;14.00;10.63;;;;;;;6.68;89.45;98556.09;3467931;79;20932;-71
2022/01/04 13:19:43;;;;;;;12.82;10.50;;;;;;;6.67;89.55;98553.52;3456034;79;21263;-70
2022/01/04 13:24:49;;;;;;;15.28;10.53;;;;;;;6.62;89.59;98539.78;3468948;79;21001;-71
2022/01/04 13:29:41;;;;;;;14.33;11.48;;;;;;;6.58;89.72;98538.05;3435513;79;20957;-72
2022/01/04 13:34:33;;;;;;;15.10;10.98;;;;;;;6.55;89.87;98526.45;3494457;78;20947;-70
2022/01/04 13:39:25;;;;;;;18.05;12.78;;;;;;;6.54;90.00;98519.56;3471121;78;21001;-70
2022/01/04 13:44:17;;;;;;;17.05;11.93;;;;;;;6.49;90.08;98520.84;3533917;78;22107;-70
2022/01/04 13:49:09;;;;;;;17.67;12.88;;;;;;;6.48;90.21;98500.63;3479820;79;21001;-72
2022/01/04 13:54:11;;;;;;;15.08;12.80;;;;;;;6.45;90.23;98501.92;3484119;78;20976;-72
2022/01/04 13:59:05;;;;;;;14.43;12.00;;;;;;;6.45;90.31;98495.91;3465882;79;20962;-75
2022/01/04 14:04:11;;;;;;;18.82;13.70;;;;;;;6.44;90.42;98485.17;3487446;80;21132;-71
2022/01/04 14:09:20;;;;;;;14.00;11.60;;;;;;;6.43;90.49;98476.98;3529994;79;20942;-73
2022/01/04 14:14:23;;;;;;;16.15;11.38;;;;;;;6.41;91.00;98462.78;3491432;79;20906;-72
2022/01/04 14:19:26;;;;;;;15.55;11.90;;;;;;;6.39;90.84;98450.32;3488989;79;21001;-72
2022/01/04 14:24:46;;;;;;;12.82;10.30;;;;;;;6.39;90.82;98442.58;3416869;79;21515;-70
2022/01/04 14:29:42;;;;;;;15.85;12.20;;;;;;;6.38;90.97;98422.78;3533796;79;21541;-71
2022/01/04 14:34:36;;;;;;;12.55;10.60;;;;;;;6.36;90.99;98411.61;3442539;80;22283;-71
2022/01/04 14:39:28;;;;;;;14.93;10.85;;;;;;;6.37;91.03;98408.17;3442604;81;20936;-71
2022/01/04 14:44:20;;;;;;;14.10;12.40;;;;;;;6.37;91.08;98404.30;3489733;78;20979;-71
2022/01/04 14:49:12;;;;;;;13.13;10.88;;;;;;;6.37;91.14;98391.40;3523305;79;20929;-70
2022/01/04 14:54:04;;;;;;;14.73;12.07;;;;;;;6.37;91.14;98372.04;3523866;78;20979;-71
2022/01/04 14:58:58;;;;;;;13.20;11.25;;;;;;;6.38;91.18;98355.67;3467401;79;21095;-70
2022/01/04 15:03:50;;;;;;;12.80;10.75;;;;;;;6.38;91.40;98347.92;3520999;78;23193;-71
2022/01/04 15:08:42;;;;;;;12.88;10.75;;;;;;;6.36;91.29;98336.75;3513747;79;21460;-70
2022/01/04 15:13:35;;;;;;;14.33;11.65;;;;;;;6.35;91.41;98340.22;3412207;79;20969;-70
2022/01/04 15:18:27;;;;;;;13.15;11.25;;;;;;;6.36;91.37;98331.59;3558722;78;21018;-72
2022/01/04 15:23:19;;;;;;;13.10;10.90;;;;;;;6.37;91.35;98330.74;3501104;78;21011;-72
2022/01/04 15:28:11;;;;;;;14.15;11.18;;;;;;;6.36;91.39;98325.58;3452116;79;20971;-71
2022/01/04 15:33:04;;;;;;;18.67;12.65;;;;;;;6.35;91.42;98304.09;3440549;80;20995;-72
2022/01/04 15:37:56;;;;;;;14.10;12.20;;;;;;;6.34;91.46;98292.03;3501725;78;20978;-72
2022/01/04 15:42:48;;;;;;;14.00;11.73;;;;;;;6.34;91.42;98279.13;3493447;78;20946;-71
2022/01/04 15:47:40;;;;;;;15.25;11.35;;;;;;;6.34;91.45;98269.25;3509723;78;21780;-71
2022/01/04 15:52:33;;;;;;;17.77;13.68;;;;;;;6.34;91.51;98253.32;3557647;78;22095;-71
2022/01/04 15:57:25;;;;;;;14.07;12.07;;;;;;;6.32;91.43;98261.51;3493908;79;21405;-72
2022/01/04 16:02:20;;;;;;;16.42;13.18;;;;;;;6.31;91.52;98244.30;3504274;79;21511;-71
2022/01/04 16:07:11;;;;;;;18.00;13.38;;;;;;;6.30;91.54;98243.89;3467196;78;20954;-71
2022/01/04 16:12:05;;;;;;;20.30;13.78;;;;;;;6.29;91.49;98231.84;3490899;80;20927;-73
2022/01/04 16:17:16;;;;;;;15.20;13.05;;;;;;;6.30;91.51;98227.12;3535818;78;22155;-70
2022/01/04 16:21:58;;;;;;;17.25;12.78;;;;;;;6.29;91.55;98224.09;3468731;79;21074;-70
2022/01/04 16:26:55;;;;;;;15.70;13.28;;;;;;;6.28;91.54;98206.92;3570355;78;20997;-70
2022/01/04 16:31:50;;;;;;;13.55;12.18;;;;;;;6.26;91.52;98194.02;3463213;81;21461;-71
2022/01/04 16:36:42;;;;;;;16.42;14.58;;;;;;;6.27;91.58;98187.13;3479370;80;21931;-70
2022/01/04 16:41:35;;;;;;;14.68;12.63;;;;;;;6.27;91.63;98181.97;3501431;78;20961;-71
2022/01/04 16:46:27;;;;;;;20.57;15.05;;;;;;;6.27;91.72;98170.36;3506954;79;21427;-71
2022/01/04 16:51:19;;;;;;;18.85;16.55;;;;;;;6.27;91.60;98170.36;3453930;81;20970;-71
2022/01/04 16:56:13;;;;;;;20.12;15.88;;;;;;;6.25;91.62;98157.91;3416639;81;39933;-70
2022/01/04 17:01:05;;;;;;;19.77;15.70;;;;;;;6.26;91.63;98154.03;3469322;81;21692;-70
2022/01/04 17:05:57;;;;;;;19.00;15.32;;;;;;;6.27;91.66;98156.16;3547726;79;21004;-71
2022/01/04 17:10:57;;;;;;;19.20;15.75;;;;;;;6.28;91.66;98146.28;3556781;79;20907;-71
2022/01/04 17:15:43;;;;;;;20.82;16.85;;;;;;;6.28;91.63;98137.25;3403948;81;20970;-72
2022/01/04 17:20:36;;;;;;;20.20;15.55;;;;;;;6.28;91.65;98130.35;3470845;79;20997;-71
2022/01/04 17:25:28;;;;;;;19.98;16.97;;;;;;;6.29;91.69;98118.30;3467004;79;21081;-70
2022/01/04 17:30:23;;;;;;;22.87;16.93;;;;;;;6.30;91.74;98105.83;3469051;79;20983;-70
2022/01/04 17:35:15;;;;;;;17.05;15.03;;;;;;;6.30;91.73;98101.95;3445173;81;20985;-71
2022/01/04 17:40:09;;;;;;;20.10;17.55;;;;;;;6.30;91.73;98091.64;3544742;79;21051;-70
2022/01/04 17:45:05;;;;;;;20.72;17.35;;;;;;;6.28;91.81;98093.38;3501746;79;21658;-70
2022/01/04 17:49:57;;;;;;;19.67;17.27;;;;;;;6.29;91.87;98087.33;3490584;79;20988;-69
2022/01/04 17:54:50;;;;;;;21.42;17.17;;;;;;;6.31;91.85;98080.42;3513127;79;21487;-70
2022/01/04 17:59:44;;;;;;;19.40;16.50;;;;;;;6.32;91.89;98076.98;3458924;79;21014;-71
2022/01/04 18:04:37;;;;;;;19.42;17.25;;;;;;;6.34;91.91;98068.80;3533762;79;20984;-71
2022/01/04 18:09:29;;;;;;;23.62;19.52;;;;;;;6.36;92.00;98064.92;3496899;79;21424;-71
2022/01/04 18:14:22;;;;;;;22.50;16.82;;;;;;;6.37;91.94;98052.01;3491645;79;22916;-70
2022/01/04 18:19:14;;;;;;;20.75;16.45;;;;;;;6.39;91.99;98045.10;3499404;79;20902;-70
2022/01/04 18:24:06;;;;;;;25.25;18.98;;;;;;;6.42;92.04;98032.59;3538046;79;21004;-70
2022/01/04 18:28:58;;;;;;;22.58;19.12;;;;;;;6.44;92.05;98020.11;3509061;78;20988;-70
2022/01/04 18:33:50;;;;;;;23.05;18.48;;;;;;;6.46;92.08;98032.56;3497346;79;21190;-69
2022/01/04 18:38:42;;;;;;;24.05;18.55;;;;;;;6.48;92.13;98023.52;3398933;79;20943;-70
2022/01/04 18:43:38;;;;;;;23.22;18.48;;;;;;;6.48;92.12;98002.42;3414039;79;21429;-69
2022/01/04 18:48:29;;;;;;;23.38;18.52;;;;;;;6.53;92.21;97996.34;3420969;81;21564;-69
2022/01/04 18:53:21;;;;;;;21.02;18.02;;;;;;;6.55;92.26;97991.61;3449903;79;21013;-69
2022/01/04 18:58:13;;;;;;;21.65;18.25;;;;;;;6.56;92.37;97986.84;3406643;80;20923;-69
2022/01/04 19:03:06;;;;;;;21.95;18.15;;;;;;;6.56;92.37;97980.83;3432284;80;20970;-69
2022/01/04 19:07:58;;;;;;;25.68;18.62;;;;;;;6.59;92.46;97987.27;3418499;80;21009;-69
2022/01/04 19:12:50;;;;;;;22.42;18.95;;;;;;;6.59;92.49;97982.10;3433310;79;20950;-69
2022/01/04 19:17:42;;;;;;;25.50;19.52;;;;;;;6.62;92.59;97969.17;3457670;79;21068;-69
2022/01/04 19:22:35;;;;;;;25.77;19.70;;;;;;;6.65;92.67;97974.27;3413774;79;20969;-70
2022/01/04 19:27:27;;;;;;;24.18;19.67;;;;;;;6.68;92.76;97971.66;3456652;81;20982;-71
2022/01/04 19:32:45;;;;;;;25.32;19.75;;;;;;;6.71;92.87;97965.59;3429682;80;20942;-70
2022/01/04 19:37:13;;;;;;;19.00;15.83;;;;;;;6.74;92.94;97965.13;3408752;80;20986;-69
2022/01/04 19:42:07;;;;;;;21.50;18.20;;;;;;;6.77;93.14;97956.06;3441397;80;21512;-69
2022/01/04 19:46:59;;;;;;;22.02;18.37;;;;;;;6.80;93.10;97953.90;3423117;80;20911;-70
2022/01/04 19:51:52;;;;;;;18.70;15.93;;;;;;;6.82;93.14;97947.83;3408527;79;21089;-70
2022/01/04 19:56:44;;;;;;;18.40;16.02;;;;;;;6.86;93.35;97952.07;3376242;80;21479;-70
2022/01/04 20:01:38;;;;;;;17.73;15.85;;;;;;;6.92;93.40;97947.70;3412545;80;21456;-70
2022/01/04 20:06:32;;;;;;;20.92;17.70;;;;;;;6.95;93.43;97933.47;3449187;81;20974;-70
2022/01/04 20:11:25;;;;;;;19.70;17.57;;;;;;;6.97;93.38;97939.47;3398489;80;20938;-71
2022/01/04 20:16:20;;;;;;;21.68;18.17;;;;;;;7.00;93.41;97929.09;3446445;80;21232;-72
2022/01/04 20:21:16;;;;;;;20.30;17.40;;;;;;;7.05;93.40;97940.23;3428393;80;20964;-70
2022/01/04 20:26:06;;;;;;;19.62;16.62;;;;;;;7.07;93.46;97926.84;3457949;80;20950;-72
2022/01/04 20:30:58;;;;;;;19.07;16.75;;;;;;;7.10;93.46;97922.06;3429658;81;21029;-72
2022/01/04 20:35:50;;;;;;;18.95;15.40;;;;;;;7.12;93.51;97928.94;3406243;80;20963;-70
2022/01/04 20:40:43;;;;;;;19.65;15.58;;;;;;;7.14;93.50;97958.19;3495148;81;20983;-71
2022/01/04 20:45:36;;;;;;;20.17;16.20;;;;;;;7.13;93.50;97960.79;3488118;79;20934;-71
2022/01/04 20:50:28;;;;;;;24.30;19.98;;;;;;;7.17;93.62;97965.91;3502498;79;21243;-71
2022/01/04 20:55:21;;;;;;;19.50;17.37;;;;;;;7.18;93.53;97977.94;3448144;79;20959;-71
2022/01/04 21:00:19;;;;;;;22.80;19.85;;;;;;;7.18;93.40;97974.06;3520728;79;21000;-70
2022/01/04 21:05:11;;;;;;;;;;;;;;;7.19;93.36;97987.83;3494369;79;21049;-70
2022/01/04 21:10:05;;;;;;;;;;;;;;;7.16;93.38;98005.53;3570997;79;20094;-70
2022/01/04 21:14:57;;;;;;;;;;;;;;;7.18;93.46;98017.99;3515079;79;20120;-70
2022/01/04 21:19:49;;;;;;;;;;;;;;;7.17;93.40;98013.72;3531201;79;20129;-70
2022/01/04 21:24:41;;;;;;;;;;;;;;;7.17;93.40;98017.59;3479144;79;20107;-70
2022/01/04 21:29:33;;;;;;;;;;;;;;;7.17;93.39;98040.84;3474794;79;22297;-71
2022/01/04 21:34:25;;;;;;;;;;;;;;;7.16;93.33;98042.16;3481907;80;20287;-70
2022/01/04 21:39:17;;;;;;;;;;;;;;;7.15;93.29;98047.73;3469931;81;20114;-70
2022/01/04 21:44:09;;;;;;;;;;;;;;;7.15;93.27;98047.73;3454123;79;20283;-71
2022/01/04 21:49:01;;;;;;;;;;;;;;;7.14;93.09;98056.83;3501752;79;20113;-71
2022/01/04 21:53:53;;;;;;;;;;;;;;;7.09;92.87;98067.65;3512145;79;20948;-70
2022/01/04 21:58:45;;;;;;;;;;;;;;;7.01;92.53;98070.30;3509613;79;20123;-71
2022/01/04 22:03:37;;;;;;;;;;;;;;;6.89;92.07;98078.20;3527922;79;20514;-71
2022/01/04 22:08:29;;;;;;;;;;;;;;;6.78;92.04;98084.33;3482018;79;20403;-72
2022/01/04 22:13:21;;;;;;;;;;;;;;;6.69;91.88;98097.33;3511147;79;20894;-71
2022/01/04 22:18:12;;;;;;;;;;;;;;;6.53;91.09;98108.64;3497543;79;22404;-71
2022/01/04 22:23:05;;;;;;;;;;;;;;;6.36;90.80;98113.51;3458025;80;20142;-71
2022/01/04 22:27:57;;;;;;;;;;;;;;;6.28;91.02;98113.58;3466975;80;20125;-71
2022/01/04 22:32:49;;;;;;;;;;;;;;;6.20;90.91;98131.27;3536888;79;20152;-71
2022/01/04 22:37:42;;;;;;;;;;;;;;;6.15;91.05;98156.23;3427316;79;20127;-71
2022/01/04 22:42:33;;;;;;;;;;;;;;;6.09;90.96;98161.01;3474635;80;20887;-71
2022/01/04 22:47:25;;;;;;;;;;;;;;;6.07;91.13;98166.17;3396363;80;20510;-70
2022/01/04 22:52:19;;;;;;;;;;;;;;;6.04;90.98;98184.23;3444199;80;20182;-71
2022/01/04 22:57:11;;;;;;;;;;;;;;;6.02;90.96;98184.69;3463610;80;20447;-71
2022/01/04 23:02:04;;;;;;;;;;;;;;;5.97;90.82;98194.16;3441886;80;20489;-71
2022/01/04 23:06:56;;;;;;;;;;;;;;;5.91;90.63;98207.06;3439842;80;21186;-71
2022/01/04 23:11:48;;;;;;;;;;;;;;;5.86;90.40;98212.67;3434309;80;20874;-71
2022/01/04 23:16:40;;;;;;;;;;;;;;;5.83;90.58;98239.34;3465873;80;20472;-71